Time;durP1;ratioP1;P1;durP2;ratioP2;P2;SDS_P1;SDS_P2;PMS_P1;PMS_P2;Temp;Humidity;BMP_temperature;BMP_pressure;BME280_temperature;BME280_humidity;BME280_pressure;Samples;Min_cycle;Max_cycle;Signal;HPM_P1;HPM_P2
2023/04/07 00:02:20;;;;;;;15.20;7.50;;;;;;;8.69;100.00;101325.81;5035643;28;20511;-63
2023/04/07 00:04:48;;;;;;;16.35;7.40;;;;;;;8.69;100.00;101317.66;5056412;28;20458;-64
2023/04/07 00:07:15;;;;;;;12.48;6.82;;;;;;;8.69;100.00;101328.53;5067710;28;20045;-62
2023/04/07 00:09:43;;;;;;;12.60;6.65;;;;;;;8.69;100.00;101328.53;5035372;28;20053;-62
2023/04/07 00:12:11;;;;;;;12.48;6.60;;;;;;;8.69;100.00;101331.25;5036709;28;20115;-62
2023/04/07 00:14:38;;;;;;;13.20;6.82;;;;;;;8.68;100.00;101320.63;5017857;28;20045;-65
2023/04/07 00:17:06;;;;;;;11.15;6.43;;;;;;;8.69;100.00;101323.09;5056384;28;20386;-63
2023/04/07 00:19:34;;;;;;;9.48;5.78;;;;;;;8.69;100.00;101333.16;5053063;28;20497;-63
2023/04/07 00:22:02;;;;;;;11.75;6.68;;;;;;;8.67;100.00;101330.66;5043888;28;20044;-62
2023/04/07 00:24:30;;;;;;;12.02;6.65;;;;;;;8.67;100.00;101329.84;5055192;28;20049;-61
2023/04/07 00:27:01;;;;;;;19.02;7.80;;;;;;;8.66;100.00;101331.75;5053726;28;20056;-63
2023/04/07 00:29:29;;;;;;;12.52;6.90;;;;;;;8.67;100.00;101327.94;5054907;28;20049;-63
2023/04/07 00:31:57;;;;;;;14.38;6.90;;;;;;;8.67;100.00;101324.41;5051529;28;20120;-62
2023/04/07 00:34:25;;;;;;;13.48;7.05;;;;;;;8.66;100.00;101320.88;5034150;28;20513;-63
2023/04/07 00:36:53;;;;;;;11.13;6.43;;;;;;;8.66;100.00;101329.03;5051407;28;20045;-61
2023/04/07 00:39:21;;;;;;;14.85;7.15;;;;;;;8.66;100.00;101325.47;5017195;28;20051;-65
2023/04/07 00:41:50;;;;;;;14.35;7.00;;;;;;;8.65;100.00;101327.38;5054213;28;20139;-61
2023/04/07 00:44:17;;;;;;;11.02;5.57;;;;;;;8.64;100.00;101322.19;5054554;28;20127;-64
2023/04/07 00:46:47;;;;;;;13.07;5.82;;;;;;;8.63;100.00;101323.25;5036181;28;20095;-62
2023/04/07 00:49:18;;;;;;;12.45;5.90;;;;;;;8.62;100.00;101321.63;5035743;28;20103;-62
2023/04/07 00:51:46;;;;;;;12.27;5.93;;;;;;;8.62;100.00;101324.31;5035040;28;20103;-63
2023/04/07 00:54:14;;;;;;;14.27;6.05;;;;;;;8.61;100.00;101325.38;5033769;28;20041;-62
2023/04/07 00:56:42;;;;;;;11.52;6.10;;;;;;;8.60;100.00;101318.31;5035763;28;20539;-64
2023/04/07 00:59:10;;;;;;;13.13;6.28;;;;;;;8.61;100.00;101322.66;5050655;28;20061;-64
2023/04/07 01:01:51;;;;;;;15.27;5.88;;;;;;;8.60;100.00;101318.31;5035323;28;20391;-63
2023/04/07 01:04:28;;;;;;;13.05;6.05;;;;;;;8.60;100.00;101326.47;5050021;28;20050;-63
2023/04/07 01:07:05;;;;;;;12.93;5.40;;;;;;;8.60;100.00;101326.47;5014734;28;20042;-62
2023/04/07 01:09:46;;;;;;;12.73;5.18;;;;;;;8.60;100.00;101334.59;5032983;28;20147;-62
2023/04/07 01:12:32;;;;;;;12.10;5.25;;;;;;;8.57;100.00;101332.38;5015060;28;20038;-64
2023/04/07 01:15:08;;;;;;;12.60;5.50;;;;;;;8.57;100.00;101335.09;5014614;28;20351;-64
2023/04/07 01:17:44;;;;;;;9.05;4.80;;;;;;;8.56;100.00;101334.25;5038863;28;20472;-61
2023/04/07 01:20:15;;;;;;;13.88;5.40;;;;;;;8.55;100.00;101326.38;5037826;28;20102;-62
2023/04/07 01:22:54;;;;;;;13.75;5.07;;;;;;;8.54;100.00;101333.69;5054129;28;20144;-62
2023/04/07 01:25:40;;;;;;;9.25;4.40;;;;;;;8.54;100.00;101325.53;5054044;28;20045;-64
2023/04/07 01:28:39;;;;;;;9.38;4.03;;;;;;;8.52;100.00;101331.22;5050650;28;20051;-63
2023/04/07 01:31:09;;;;;;;10.73;4.07;;;;;;;8.48;100.00;101324.59;5024906;28;20052;-62
2023/04/07 01:33:37;;;;;;;10.27;3.95;;;;;;;8.47;100.00;101333.81;5050679;28;20041;-62
2023/04/07 01:36:07;;;;;;;11.13;3.90;;;;;;;8.47;100.00;101331.09;5033001;28;20549;-63
2023/04/07 01:38:35;;;;;;;8.13;3.85;;;;;;;8.46;100.00;101334.88;5036227;28;20049;-63
2023/04/07 01:41:03;;;;;;;11.35;4.13;;;;;;;8.46;100.00;101334.88;5019576;28;20108;-63
2023/04/07 01:43:31;;;;;;;7.75;3.70;;;;;;;8.45;100.00;101335.94;5046277;28;20398;-65
2023/04/07 01:46:00;;;;;;;10.50;4.10;;;;;;;8.45;100.00;101335.94;5041867;28;20072;-63
2023/04/07 01:48:27;;;;;;;9.60;4.25;;;;;;;8.43;100.00;101340.78;5047162;28;20048;-62
2023/04/07 01:50:55;;;;;;;10.60;4.03;;;;;;;8.42;100.00;101343.75;5043423;28;20037;-63
2023/04/07 01:53:23;;;;;;;11.80;4.80;;;;;;;8.41;100.00;101344.81;5043298;28;20128;-64
2023/04/07 01:55:52;;;;;;;8.88;4.07;;;;;;;8.39;100.00;101347.72;5032252;28;20052;-64
2023/04/07 01:58:20;;;;;;;8.98;3.80;;;;;;;8.39;100.00;101345.03;5033448;28;20037;-64
2023/04/07 02:00:50;;;;;;;9.05;4.15;;;;;;;8.40;100.00;101348.63;5046561;28;20050;-63
2023/04/07 02:03:30;;;;;;;10.80;4.30;;;;;;;8.42;100.00;101344.59;4997826;28;20111;-65
2023/04/07 02:06:03;;;;;;;9.02;4.10;;;;;;;8.43;100.00;101346.22;5013593;28;20473;-64
2023/04/07 02:08:32;;;;;;;9.10;3.95;;;;;;;8.45;100.00;101354.16;5012940;28;20489;-63
2023/04/07 02:11:02;;;;;;;7.43;4.00;;;;;;;8.44;100.00;101353.31;5013527;28;20068;-61
2023/04/07 02:13:34;;;;;;;9.20;4.18;;;;;;;8.42;100.00;101347.31;5013307;28;20113;-65
2023/04/07 02:16:02;;;;;;;10.40;4.65;;;;;;;8.43;100.00;101357.09;5047424;28;20042;-62
2023/04/07 02:18:31;;;;;;;11.52;4.22;;;;;;;8.43;100.00;101351.66;5049584;28;20103;-63
2023/04/07 02:21:00;;;;;;;11.27;4.20;;;;;;;8.42;100.00;101355.44;5033126;28;20476;-61
2023/04/07 02:23:28;;;;;;;9.07;4.03;;;;;;;8.42;100.00;101355.44;5033245;28;20049;-63
2023/04/07 02:25:57;;;;;;;11.85;4.30;;;;;;;8.41;100.00;101359.22;5031521;28;20124;-63
2023/04/07 02:28:24;;;;;;;9.07;4.30;;;;;;;8.40;100.00;101357.56;5034282;28;20049;-64
2023/04/07 02:30:52;;;;;;;10.32;4.55;;;;;;;8.40;100.00;101356.75;5032912;28;20057;-62
2023/04/07 02:33:20;;;;;;;7.10;4.32;;;;;;;8.39;100.00;101350.44;5033766;28;20088;-62
2023/04/07 02:35:48;;;;;;;10.65;4.30;;;;;;;8.37;100.00;101358.03;5031928;28;20505;-64
2023/04/07 02:38:16;;;;;;;6.90;3.80;;;;;;;8.36;100.00;101356.38;5031572;28;20064;-62
2023/04/07 02:40:44;;;;;;;7.47;3.75;;;;;;;8.34;100.00;101353.06;5033411;28;20071;-62
2023/04/07 02:43:12;;;;;;;7.50;3.75;;;;;;;8.35;100.00;101356.63;5022212;28;20556;-63
2023/04/07 02:45:40;;;;;;;8.23;3.80;;;;;;;8.35;100.00;101354.72;5052555;28;20106;-63
2023/04/07 02:48:08;;;;;;;8.25;4.30;;;;;;;8.38;100.00;101359.66;5051167;28;20049;-65
2023/04/07 02:50:36;;;;;;;5.80;3.53;;;;;;;8.38;100.00;101359.66;5052321;28;20466;-64
2023/04/07 02:53:04;;;;;;;10.02;3.88;;;;;;;8.39;100.00;101363.22;5039771;28;20366;-64
2023/04/07 02:55:31;;;;;;;8.88;3.95;;;;;;;8.39;100.00;101360.50;5043276;28;20519;-65
2023/04/07 02:58:00;;;;;;;9.23;3.83;;;;;;;8.39;100.00;101357.78;5053707;28;20114;-63
2023/04/07 03:00:40;;;;;;;7.90;3.90;;;;;;;8.37;100.00;101349.88;5037679;28;20052;-62
2023/04/07 03:03:12;;;;;;;11.05;4.40;;;;;;;8.37;100.00;101351.75;5052718;28;20041;-62
2023/04/07 03:05:44;;;;;;;6.70;3.60;;;;;;;8.35;100.00;101349.31;5042408;28;20041;-64
2023/04/07 03:08:12;;;;;;;11.95;4.18;;;;;;;8.36;100.00;101355.56;5033308;28;20081;-63
2023/04/07 03:10:40;;;;;;;8.63;4.10;;;;;;;8.35;100.00;101343.88;5016082;28;20089;-65
2023/04/07 03:13:09;;;;;;;9.80;4.32;;;;;;;8.36;100.00;101350.94;5016131;28;20608;-63
2023/04/07 03:15:37;;;;;;;9.48;4.15;;;;;;;8.37;100.00;101352.59;5064573;28;20034;-64
2023/04/07 03:18:06;;;;;;;8.18;4.07;;;;;;;8.36;100.00;101356.38;5032156;28;20073;-64
2023/04/07 03:20:34;;;;;;;8.27;4.20;;;;;;;8.36;100.00;101356.38;5032172;28;20060;-64
2023/04/07 03:23:08;;;;;;;11.88;4.78;;;;;;;8.35;100.00;101357.44;5033423;28;20042;-65
2023/04/07 03:25:36;;;;;;;11.30;4.18;;;;;;;8.36;100.00;101361.78;5047682;28;20148;-63
2023/04/07 03:28:04;;;;;;;13.88;5.00;;;;;;;8.37;100.00;101352.59;5028690;28;20058;-64
2023/04/07 03:30:35;;;;;;;9.02;4.78;;;;;;;8.37;100.00;101360.75;5040556;28;20107;-63
2023/04/07 03:33:04;;;;;;;12.55;5.60;;;;;;;8.37;100.00;101365.31;5032912;28;20081;-63
2023/04/07 03:35:32;;;;;;;12.32;4.88;;;;;;;8.37;100.00;101365.31;5031226;28;20478;-64
2023/04/07 03:38:00;;;;;;;9.45;4.65;;;;;;;8.36;100.00;101366.41;5050163;28;20057;-64
2023/04/07 03:40:28;;;;;;;12.10;5.15;;;;;;;8.34;100.00;101358.50;5057092;28;20049;-63
2023/04/07 03:42:55;;;;;;;10.32;5.10;;;;;;;8.35;100.00;101365.59;5046921;28;20160;-62
2023/04/07 03:45:23;;;;;;;11.75;5.10;;;;;;;8.36;100.00;101361.78;5033393;28;20094;-63
2023/04/07 03:47:53;;;;;;;14.45;5.38;;;;;;;8.36;100.00;101369.13;5032721;28;20046;-62
2023/04/07 03:50:21;;;;;;;12.00;4.70;;;;;;;8.35;100.00;101360.16;5018906;28;20103;-63
2023/04/07 03:53:01;;;;;;;11.75;5.03;;;;;;;8.33;100.00;101367.72;5036393;28;20057;-65
2023/04/07 03:55:31;;;;;;;13.27;5.57;;;;;;;8.32;100.00;101363.34;5035347;28;20038;-62
2023/04/07 03:58:07;;;;;;;8.07;4.45;;;;;;;8.32;100.00;101371.47;5055797;28;20048;-63
2023/04/07 04:00:37;;;;;;;10.85;4.60;;;;;;;8.31;100.00;101367.13;5054849;28;20047;-64
2023/04/07 04:03:08;;;;;;;8.70;4.57;;;;;;;8.31;100.00;101372.56;5049204;28;20045;-61
2023/04/07 04:05:43;;;;;;;10.30;4.72;;;;;;;8.29;100.00;101371.97;5020258;28;20045;-63
2023/04/07 04:08:16;;;;;;;12.13;5.13;;;;;;;8.24;100.00;101369.16;5044092;28;20128;-60
2023/04/07 04:10:44;;;;;;;14.68;5.45;;;;;;;8.24;100.00;101366.44;5019785;28;20053;-63
2023/04/07 04:13:12;;;;;;;13.55;4.95;;;;;;;8.25;100.00;101370.78;5035630;28;20053;-63
2023/04/07 04:15:42;;;;;;;13.80;5.43;;;;;;;8.25;100.00;101371.63;5019269;28;20100;-63
2023/04/07 04:18:14;;;;;;;13.50;5.35;;;;;;;8.28;100.00;101370.31;5047316;28;20119;-61
2023/04/07 04:20:42;;;;;;;11.80;5.10;;;;;;;8.29;100.00;101364.63;5025694;28;20120;-64
2023/04/07 04:23:10;;;;;;;13.80;5.55;;;;;;;8.30;100.00;101362.78;5035543;28;20038;-64
2023/04/07 04:25:41;;;;;;;14.13;5.47;;;;;;;8.31;100.00;101364.41;5036815;28;20053;-62
2023/04/07 04:28:11;;;;;;;12.43;4.63;;;;;;;8.32;100.00;101374.19;5066943;28;20053;-62
2023/04/07 04:30:40;;;;;;;10.60;4.75;;;;;;;8.32;100.00;101364.19;5035373;28;20041;-61
2023/04/07 04:33:08;;;;;;;11.85;5.05;;;;;;;8.33;100.00;101378.56;5034792;28;20050;-63
2023/04/07 04:35:41;;;;;;;13.95;5.63;;;;;;;8.35;100.00;101386.50;5036288;28;20049;-63
2023/04/07 04:38:13;;;;;;;13.85;4.75;;;;;;;8.32;100.00;101382.34;5039431;28;20068;-62
2023/04/07 04:40:46;;;;;;;13.30;4.60;;;;;;;8.32;100.00;101379.63;5039998;28;20051;-61
2023/04/07 04:43:16;;;;;;;11.35;5.30;;;;;;;8.31;100.00;101386.13;5055263;28;20063;-63
2023/04/07 04:45:44;;;;;;;15.27;5.22;;;;;;;8.32;100.00;101390.47;5044417;28;20071;-62
2023/04/07 04:48:15;;;;;;;20.25;5.72;;;;;;;8.29;100.00;101389.06;5035044;28;20560;-61
2023/04/07 04:50:43;;;;;;;13.38;4.78;;;;;;;8.29;100.00;101401.81;5034651;28;20140;-61
2023/04/07 04:53:12;;;;;;;13.48;5.03;;;;;;;8.28;100.00;101392.88;5016000;28;20133;-63
2023/04/07 04:55:57;;;;;;;15.00;5.28;;;;;;;8.29;100.00;101394.50;5029920;28;20043;-62
2023/04/07 04:58:39;;;;;;;17.52;5.30;;;;;;;8.27;100.00;101395.81;5056104;28;20041;-62
2023/04/07 05:01:07;;;;;;;14.48;5.63;;;;;;;8.24;100.00;101391.69;5048890;28;20095;-62
2023/04/07 05:03:40;;;;;;;15.40;5.68;;;;;;;8.23;100.00;101397.38;5051027;28;20083;-64
2023/04/07 05:06:17;;;;;;;13.52;5.28;;;;;;;8.22;100.00;101398.41;5033763;28;20052;-62
2023/04/07 05:08:48;;;;;;;16.48;5.47;;;;;;;8.23;100.00;101403.63;5042287;28;20128;-62
2023/04/07 05:11:18;;;;;;;15.60;5.47;;;;;;;8.23;100.00;101400.09;5034667;28;20080;-64
2023/04/07 05:13:50;;;;;;;17.20;6.55;;;;;;;8.19;100.00;101402.44;5018642;28;20053;-64
2023/04/07 05:16:18;;;;;;;19.42;6.70;;;;;;;8.14;100.00;101401.50;5039857;28;20047;-61
2023/04/07 05:18:46;;;;;;;17.52;7.15;;;;;;;8.10;100.00;101407.41;5042173;28;20053;-63
2023/04/07 05:21:19;;;;;;;20.30;7.13;;;;;;;8.10;100.00;101412.00;5038951;28;20048;-63
2023/04/07 05:23:47;;;;;;;18.33;7.00;;;;;;;8.10;100.00;101404.69;5038516;28;20076;-64
2023/04/07 05:26:15;;;;;;;19.75;6.90;;;;;;;8.10;100.00;101404.69;5035820;28;20073;-65
2023/04/07 05:28:43;;;;;;;18.30;6.78;;;;;;;8.12;100.00;101412.59;5043947;28;20448;-64
2023/04/07 05:31:16;;;;;;;18.98;6.65;;;;;;;8.12;100.00;101420.72;5017309;28;20075;-63
2023/04/07 05:33:47;;;;;;;18.77;6.82;;;;;;;8.12;100.00;101420.72;5018009;28;20045;-63
2023/04/07 05:36:15;;;;;;;19.33;7.05;;;;;;;8.13;100.00;101426.97;5017779;28;20056;-62
2023/04/07 05:38:44;;;;;;;21.05;7.13;;;;;;;8.13;100.00;101424.25;5035662;28;20053;-64
2023/04/07 05:41:15;;;;;;;18.33;7.35;;;;;;;8.13;100.00;101426.97;5055674;28;20075;-62
2023/04/07 05:43:43;;;;;;;18.15;7.13;;;;;;;8.11;100.00;101425.34;4355949;28;10000804;-62
2023/04/07 05:46:11;;;;;;;18.13;7.07;;;;;;;8.11;100.00;101432.66;5050905;28;20056;-62
2023/04/07 05:48:47;;;;;;;15.45;7.00;;;;;;;8.11;100.00;101432.66;5046266;28;20100;-63
2023/04/07 05:51:16;;;;;;;22.77;7.30;;;;;;;8.11;100.00;101430.78;5038743;28;20041;-65
2023/04/07 05:53:44;;;;;;;23.48;7.55;;;;;;;8.12;100.00;101431.59;5052670;28;20490;-62
2023/04/07 05:56:13;;;;;;;23.75;8.32;;;;;;;8.13;100.00;101438.69;5035327;28;20069;-64
2023/04/07 05:58:47;;;;;;;16.55;7.78;;;;;;;8.13;100.00;101435.97;5023780;28;20055;-64
2023/04/07 06:01:16;;;;;;;19.60;8.15;;;;;;;8.14;100.00;101444.94;5029095;28;20072;-61
2023/04/07 06:03:44;;;;;;;22.02;7.63;;;;;;;8.11;100.00;101444.34;5030726;28;20187;-63
2023/04/07 06:06:21;;;;;;;19.77;7.78;;;;;;;8.13;100.00;101438.69;5013924;28;20049;-63
2023/04/07 06:08:48;;;;;;;20.55;8.20;;;;;;;8.14;100.00;101439.50;5029557;28;20401;-62
2023/04/07 06:11:16;;;;;;;17.42;8.10;;;;;;;8.14;100.00;101448.47;5013723;28;20060;-65
2023/04/07 06:13:44;;;;;;;19.85;8.98;;;;;;;8.09;100.00;101451.88;5013435;28;20127;-64
2023/04/07 06:16:11;;;;;;;17.92;8.95;;;;;;;8.07;100.00;101451.28;5031382;28;20128;-63
2023/04/07 06:18:40;;;;;;;22.73;8.68;;;;;;;8.06;100.00;101460.50;5029320;28;20494;-60
2023/04/07 06:21:08;;;;;;;24.02;9.80;;;;;;;8.04;100.00;101462.63;5031015;28;20208;-64
2023/04/07 06:23:36;;;;;;;25.35;9.57;;;;;;;7.99;100.00;101459.78;5013679;28;20042;-63
2023/04/07 06:26:11;;;;;;;21.30;8.40;;;;;;;7.96;100.00;101457.56;5046283;28;20095;-65
2023/04/07 06:28:39;;;;;;;17.33;8.07;;;;;;;7.97;100.00;101466.53;5029560;28;20056;-65
2023/04/07 06:31:08;;;;;;;17.48;7.63;;;;;;;7.97;100.00;101463.81;5031133;28;20041;-63
2023/04/07 06:33:37;;;;;;;17.65;6.72;;;;;;;7.97;100.00;101470.06;5032837;28;20045;-62
2023/04/07 06:36:05;;;;;;;11.23;5.47;;;;;;;7.99;100.00;101476.06;5033306;28;20116;-63
2023/04/07 06:38:32;;;;;;;12.32;5.32;;;;;;;8.03;100.00;101469.13;5016408;28;20053;-64
2023/04/07 06:41:01;;;;;;;11.65;4.53;;;;;;;8.06;100.00;101465.94;5033952;28;20578;-63
2023/04/07 06:43:30;;;;;;;7.53;3.85;;;;;;;8.09;100.00;101473.59;5032954;28;20087;-63
2023/04/07 06:46:02;;;;;;;8.85;4.10;;;;;;;8.11;100.00;101474.19;5016666;28;20042;-64
2023/04/07 06:48:30;;;;;;;9.25;4.25;;;;;;;8.10;100.00;101480.69;5051063;28;20280;-64
2023/04/07 06:50:57;;;;;;;10.70;5.25;;;;;;;8.13;100.00;101486.69;5035354;28;20059;-64
2023/04/07 06:53:25;;;;;;;13.60;5.85;;;;;;;8.13;100.00;101486.69;5034749;28;20136;-65
2023/04/07 06:56:03;;;;;;;14.88;7.25;;;;;;;8.14;100.00;101488.34;5033359;28;20048;-64
2023/04/07 06:58:30;;;;;;;14.77;7.30;;;;;;;8.14;100.00;101493.78;5013394;28;20065;-64
2023/04/07 07:00:59;;;;;;;13.02;6.68;;;;;;;8.16;100.00;101494.38;5014795;28;20485;-65
2023/04/07 07:03:28;;;;;;;12.98;6.15;;;;;;;8.18;100.00;101494.94;5029248;28;20053;-64
2023/04/07 07:05:56;;;;;;;12.57;6.07;;;;;;;8.21;100.00;101502.66;5030519;28;20053;-63
2023/04/07 07:08:25;;;;;;;12.13;5.90;;;;;;;8.21;100.00;101497.22;5032759;28;20049;-65
2023/04/07 07:10:53;;;;;;;18.58;6.63;;;;;;;8.25;100.00;101496.50;5031923;28;20045;-63
2023/04/07 07:13:23;;;;;;;12.77;5.20;;;;;;;8.32;100.00;101502.66;5032191;28;20057;-62
2023/04/07 07:15:51;;;;;;;9.60;4.55;;;;;;;8.30;100.00;101493.09;5032215;28;20513;-65
2023/04/07 07:18:19;;;;;;;11.60;4.90;;;;;;;8.30;100.00;101504.78;5033715;28;20053;-65
2023/04/07 07:20:47;;;;;;;11.38;5.47;;;;;;;8.30;100.00;101501.22;5032418;28;20049;-62
2023/04/07 07:23:14;;;;;;;8.00;4.47;;;;;;;8.31;100.00;101503.69;5033766;28;20124;-64
2023/04/07 07:25:42;;;;;;;9.88;3.47;;;;;;;8.32;100.00;101512.66;5033684;28;20413;-64
2023/04/07 07:28:10;;;;;;;10.45;4.32;;;;;;;8.31;100.00;101511.03;5032094;28;20164;-62
2023/04/07 07:30:40;;;;;;;12.68;4.97;;;;;;;8.32;100.00;101516.22;5033548;28;20045;-63
2023/04/07 07:33:08;;;;;;;12.45;3.67;;;;;;;8.33;100.00;101519.75;5032389;28;20443;-61
2023/04/07 07:35:36;;;;;;;13.38;4.30;;;;;;;8.35;100.00;101522.25;5015577;28;20477;-64
2023/04/07 07:38:04;;;;;;;12.00;3.75;;;;;;;8.39;100.00;101523.41;5033831;28;20045;-63
2023/04/07 07:40:32;;;;;;;11.07;3.80;;;;;;;8.42;100.00;101523.81;5032511;28;20046;-65
2023/04/07 07:43:00;;;;;;;8.85;3.88;;;;;;;8.41;100.00;101522.16;5033354;28;20057;-64
2023/04/07 07:45:27;;;;;;;12.60;4.07;;;;;;;8.41;100.00;101522.16;5031956;28;20081;-63
2023/04/07 07:47:55;;;;;;;13.25;4.25;;;;;;;8.57;100.00;101525.22;5032333;28;20076;-61
2023/04/07 07:50:23;;;;;;;9.13;3.40;;;;;;;8.62;100.00;101522.63;5034184;28;20045;-65
2023/04/07 07:52:51;;;;;;;12.60;3.88;;;;;;;8.61;100.00;101529.94;5033515;28;20076;-61
2023/04/07 07:55:19;;;;;;;12.93;4.35;;;;;;;8.55;100.00;101524.63;5032982;28;20056;-61
2023/04/07 07:57:47;;;;;;;10.32;3.63;;;;;;;8.55;100.00;101532.78;5032173;28;20092;-64
2023/04/07 08:00:14;;;;;;;12.25;4.20;;;;;;;8.55;100.00;101533.59;5033622;28;20045;-62
2023/04/07 08:02:42;;;;;;;10.07;4.40;;;;;;;8.55;100.00;101533.59;5033835;28;20045;-64
2023/04/07 08:05:10;;;;;;;14.30;6.00;;;;;;;8.56;100.00;101540.66;5032498;28;20068;-62
2023/04/07 08:07:38;;;;;;;14.43;4.38;;;;;;;8.61;100.00;101545.41;5033789;28;20080;-63
2023/04/07 08:10:06;;;;;;;10.77;3.78;;;;;;;8.61;100.00;101553.53;5034031;28;20493;-64
2023/04/07 08:12:34;;;;;;;10.05;4.03;;;;;;;8.61;100.00;101548.13;5033716;28;20038;-63
2023/04/07 08:15:02;;;;;;;9.73;4.30;;;;;;;8.58;100.00;101543.16;5033247;28;20037;-62
2023/04/07 08:17:30;;;;;;;11.93;4.20;;;;;;;8.56;100.00;101548.81;5016076;28;20049;-65
2023/04/07 08:19:58;;;;;;;11.68;4.50;;;;;;;8.55;100.00;101560.75;5032797;28;20061;-64
2023/04/07 08:22:25;;;;;;;13.70;4.28;;;;;;;8.51;100.00;101555.00;5033288;28;20124;-61
2023/04/07 08:24:53;;;;;;;12.18;4.32;;;;;;;8.57;100.00;101560.53;5035030;28;20080;-65
2023/04/07 08:27:21;;;;;;;10.40;4.10;;;;;;;8.61;100.00;101556.25;5037004;28;20068;-63
2023/04/07 08:30:01;;;;;;;14.80;5.38;;;;;;;8.63;100.00;101559.56;5036503;28;20080;-64
2023/04/07 08:32:35;;;;;;;12.93;4.50;;;;;;;8.63;100.00;101567.72;5019492;28;20053;-64
2023/04/07 08:35:03;;;;;;;10.60;4.32;;;;;;;8.61;100.00;101558.97;5019289;28;20103;-64
2023/04/07 08:37:33;;;;;;;13.32;4.22;;;;;;;8.61;100.00;101559.81;5036426;28;20061;-63
2023/04/07 08:40:01;;;;;;;11.45;4.00;;;;;;;8.61;100.00;101565.25;5036512;28;20061;-63
2023/04/07 08:42:31;;;;;;;12.07;4.22;;;;;;;8.64;100.00;101575.66;5036028;28;20124;-61
2023/04/07 08:45:06;;;;;;;12.02;4.60;;;;;;;8.65;100.00;101571.03;5037119;28;20156;-63
2023/04/07 08:47:35;;;;;;;12.68;4.28;;;;;;;8.66;100.00;101572.69;5035785;28;20048;-65
2023/04/07 08:50:06;;;;;;;7.78;4.03;;;;;;;8.68;100.00;101570.56;5035475;28;20053;-63
2023/04/07 08:52:45;;;;;;;11.35;3.90;;;;;;;8.70;100.00;101573.88;5034832;28;20049;-65
2023/04/07 08:55:13;;;;;;;8.57;3.65;;;;;;;8.72;100.00;101574.47;5035673;28;20052;-64
2023/04/07 08:57:41;;;;;;;11.52;4.10;;;;;;;8.76;100.00;101580.25;5035599;28;20140;-63
2023/04/07 09:00:10;;;;;;;9.27;4.13;;;;;;;8.76;100.00;101580.25;5036510;28;20037;-64
2023/04/07 09:02:40;;;;;;;10.35;4.15;;;;;;;8.74;100.00;101585.91;5034976;28;20091;-65
2023/04/07 09:05:08;;;;;;;10.40;3.95;;;;;;;8.76;100.00;101589.22;5036114;28;20404;-62
2023/04/07 09:07:39;;;;;;;11.63;4.40;;;;;;;8.79;100.00;101583.31;5035164;28;20200;-65
2023/04/07 09:10:07;;;;;;;9.90;4.38;;;;;;;8.79;100.00;101586.03;5034929;28;20694;-62
2023/04/07 09:12:35;;;;;;;11.80;4.90;;;;;;;8.79;100.00;101590.66;5035266;28;20069;-62
2023/04/07 09:15:05;;;;;;;11.02;4.95;;;;;;;8.75;100.00;101593.00;5034416;28;20074;-65
2023/04/07 09:17:32;;;;;;;14.18;5.25;;;;;;;8.70;100.00;101599.13;5035659;28;20404;-65
2023/04/07 09:20:01;;;;;;;15.68;6.03;;;;;;;8.71;100.00;101600.81;5025986;28;20099;-65
2023/04/07 09:22:39;;;;;;;13.85;5.40;;;;;;;8.73;100.00;101608.69;5023695;28;20413;-62
2023/04/07 09:25:26;;;;;;;17.27;5.57;;;;;;;8.73;100.00;101595.13;5039180;28;20069;-64
2023/04/07 09:28:02;;;;;;;15.32;5.50;;;;;;;8.75;100.00;101598.44;5047986;28;20056;-64
2023/04/07 09:30:32;;;;;;;13.88;5.00;;;;;;;8.78;100.00;101603.41;5039175;28;20041;-63
2023/04/07 09:33:00;;;;;;;11.75;5.00;;;;;;;8.77;100.00;101601.75;5036047;28;20049;-63
2023/04/07 09:35:28;;;;;;;15.18;5.00;;;;;;;8.76;100.00;101602.00;5036838;28;20049;-66
2023/04/07 09:38:09;;;;;;;16.20;5.90;;;;;;;8.73;100.00;101600.56;5039933;28;20080;-64
2023/04/07 09:40:37;;;;;;;14.50;5.72;;;;;;;8.73;100.00;101600.56;5037812;28;20037;-65
2023/04/07 09:43:05;;;;;;;12.95;5.13;;;;;;;8.73;100.00;101598.69;5038806;28;20120;-64
2023/04/07 09:45:38;;;;;;;13.55;6.10;;;;;;;8.75;100.00;101606.56;5039118;28;20041;-64
2023/04/07 09:48:18;;;;;;;18.42;5.90;;;;;;;8.76;100.00;101607.44;5037791;28;20115;-65
2023/04/07 09:50:50;;;;;;;13.63;5.85;;;;;;;8.76;100.00;101610.16;5040445;28;20046;-62
2023/04/07 09:53:19;;;;;;;14.32;5.60;;;;;;;8.78;100.00;101603.41;5038691;28;20464;-63
2023/04/07 09:55:47;;;;;;;13.50;6.68;;;;;;;8.85;100.00;101603.28;5034662;28;20045;-63
2023/04/07 09:58:15;;;;;;;15.98;5.88;;;;;;;8.88;100.00;101619.94;5017890;28;20053;-63
2023/04/07 10:00:44;;;;;;;10.30;5.03;;;;;;;8.87;100.00;101612.84;5034401;28;20427;-62
2023/04/07 10:03:12;;;;;;;13.95;5.53;;;;;;;8.85;100.00;101620.41;5035115;28;20053;-64
2023/04/07 10:05:40;;;;;;;15.75;4.22;;;;;;;8.86;100.00;101615.81;5033809;28;20053;-64
2023/04/07 10:08:10;;;;;;;9.82;3.85;;;;;;;8.88;100.00;101616.41;5017444;28;20554;-63
2023/04/07 10:10:42;;;;;;;14.93;4.15;;;;;;;8.88;100.00;101614.50;5033831;28;20049;-63
2023/04/07 10:13:10;;;;;;;14.07;3.78;;;;;;;8.89;100.00;101620.75;5017225;28;20060;-64
2023/04/07 10:15:38;;;;;;;13.55;3.90;;;;;;;8.88;100.00;101613.69;5035160;28;20048;-65
2023/04/07 10:18:07;;;;;;;15.07;4.00;;;;;;;8.87;100.00;101629.13;5034815;28;20049;-63
2023/04/07 10:20:36;;;;;;;13.23;3.40;;;;;;;8.84;100.00;101628.81;5033311;28;20067;-64
2023/04/07 10:23:18;;;;;;;12.52;3.47;;;;;;;8.82;100.00;101615.44;5033200;28;20056;-63
2023/04/07 10:25:47;;;;;;;13.65;3.88;;;;;;;8.83;100.00;101624.44;5034927;28;20077;-64
2023/04/07 10:28:16;;;;;;;12.68;3.90;;;;;;;8.86;100.00;101632.13;5033278;28;20060;-62
2023/04/07 10:30:44;;;;;;;11.65;4.03;;;;;;;8.96;100.00;101632.34;5034236;28;20091;-64
2023/04/07 10:33:12;;;;;;;15.32;3.97;;;;;;;9.10;100.00;101635.66;5033207;28;20084;-64
2023/04/07 10:36:03;;;;;;;14.57;3.80;;;;;;;9.05;100.00;101635.53;5042759;28;20053;-62
2023/04/07 10:38:31;;;;;;;13.30;3.60;;;;;;;9.00;100.00;101646.28;5033464;28;20445;-63
2023/04/07 10:40:59;;;;;;;12.68;3.85;;;;;;;8.96;100.00;101646.75;5035072;28;20053;-63
2023/04/07 10:43:45;;;;;;;14.82;4.05;;;;;;;8.94;100.00;101640.72;5033352;28;20065;-64
2023/04/07 10:46:13;;;;;;;12.07;3.55;;;;;;;8.95;100.00;101642.38;5034252;28;20046;-63
2023/04/07 10:48:41;;;;;;;9.98;3.35;;;;;;;8.94;100.00;101646.16;5034334;28;20037;-64
2023/04/07 10:51:14;;;;;;;11.85;3.50;;;;;;;8.91;100.00;101641.19;5033118;28;20076;-63
2023/04/07 10:54:17;;;;;;;14.50;3.65;;;;;;;8.90;100.00;101647.72;5034573;28;20080;-62
2023/04/07 10:57:10;;;;;;;13.05;3.30;;;;;;;8.90;100.00;101645.00;5016902;28;20141;-66
2023/04/07 11:00:10;;;;;;;13.45;3.40;;;;;;;8.89;100.00;101640.59;5014334;28;20406;-63
2023/04/07 11:02:39;;;;;;;9.75;3.15;;;;;;;8.91;100.00;101646.63;5009582;28;20058;-65
2023/04/07 11:05:07;;;;;;;10.02;3.05;;;;;;;8.96;100.00;101641.31;5023636;28;20501;-67
2023/04/07 11:07:54;;;;;;;12.82;3.88;;;;;;;8.96;100.00;101645.94;5065612;28;20137;-64
2023/04/07 11:10:22;;;;;;;16.60;4.20;;;;;;;8.95;100.00;101650.53;5034137;28;20063;-64
2023/04/07 11:13:06;;;;;;;13.48;4.07;;;;;;;8.94;100.00;101654.31;5016694;28;20404;-64
2023/04/07 11:15:36;;;;;;;11.82;3.75;;;;;;;8.94;100.00;101651.59;5016752;28;20480;-64
2023/04/07 11:18:13;;;;;;;12.85;3.88;;;;;;;8.95;100.00;101653.25;5014106;28;20056;-63
2023/04/07 11:20:52;;;;;;;9.82;3.45;;;;;;;8.94;100.00;101657.03;5034493;28;20494;-64
2023/04/07 11:23:22;;;;;;;12.10;3.85;;;;;;;8.94;100.00;101661.63;5016702;28;20053;-64
2023/04/07 11:25:51;;;;;;;14.90;4.10;;;;;;;8.94;100.00;101657.03;5032608;28;20508;-64
2023/04/07 11:28:19;;;;;;;12.00;3.80;;;;;;;8.92;100.00;101658.31;5033187;28;20449;-64
2023/04/07 11:30:50;;;;;;;14.25;4.10;;;;;;;8.93;100.00;101660.00;5035342;28;20078;-63
2023/04/07 11:33:21;;;;;;;13.27;3.95;;;;;;;8.89;100.00;101665.06;5049673;28;20049;-64
2023/04/07 11:35:49;;;;;;;13.95;4.30;;;;;;;8.90;100.00;101660.47;5033200;28;20072;-65